sensor_id;sensor_type;location;lat;lon;timestamp;pressure;altitude;pressure_sealevel;temperature;humidity
40730;BME280;26418;50.070;8.436;2023-07-16T00:01:34;99604.66;;;20.11;100.00
40730;BME280;26418;50.070;8.436;2023-07-16T00:04:00;99551.75;;;20.14;100.00
40730;BME280;26418;50.070;8.436;2023-07-16T00:06:25;99577.22;;;20.11;100.00
40730;BME280;26418;50.070;8.436;2023-07-16T00:08:51;99605.81;;;20.10;100.00
40730;BME280;26418;50.070;8.436;2023-07-16T00:11:16;99596.34;;;20.04;100.00
40730;BME280;26418;50.070;8.436;2023-07-16T00:13:42;99597.88;;;20.01;100.00
40730;BME280;26418;50.070;8.436;2023-07-16T00:16:12;99624.13;;;20.02;100.00
40730;BME280;26418;50.070;8.436;2023-07-16T00:18:38;99630.81;;;20.01;100.00
40730;BME280;26418;50.070;8.436;2023-07-16T00:21:03;99626.50;;;20.00;100.00
40730;BME280;26418;50.070;8.436;2023-07-16T00:23:29;99622.16;;;19.99;100.00
40730;BME280;26418;50.070;8.436;2023-07-16T00:25:54;99622.16;;;19.99;100.00
40730;BME280;26418;50.070;8.436;2023-07-16T00:28:20;99637.03;;;19.98;100.00
40730;BME280;26418;50.070;8.436;2023-07-16T00:30:45;99629.22;;;20.00;100.00
40730;BME280;26418;50.070;8.436;2023-07-16T00:33:11;99624.91;;;19.99;98.86
40730;BME280;26418;50.070;8.436;2023-07-16T00:35:36;99624.44;;;19.93;99.13
40730;BME280;26418;50.070;8.436;2023-07-16T00:38:02;99642.06;;;19.92;98.05
40730;BME280;26418;50.070;8.436;2023-07-16T00:40:28;99647.78;;;19.84;98.21
40730;BME280;26418;50.070;8.436;2023-07-16T00:42:53;99646.94;;;19.79;98.09
40730;BME280;26418;50.070;8.436;2023-07-16T00:45:19;99669.41;;;19.85;97.39
40730;BME280;26418;50.070;8.436;2023-07-16T00:47:45;99670.53;;;19.84;96.97
40730;BME280;26418;50.070;8.436;2023-07-16T00:50:11;99670.47;;;19.80;96.61
40730;BME280;26418;50.070;8.436;2023-07-16T00:52:38;99666.53;;;19.78;96.54
40730;BME280;26418;50.070;8.436;2023-07-16T00:55:05;99644.09;;;19.72;97.03
40730;BME280;26418;50.070;8.436;2023-07-16T00:57:31;99633.13;;;19.72;96.33
40730;BME280;26418;50.070;8.436;2023-07-16T00:59:58;99614.19;;;19.63;95.45
40730;BME280;26418;50.070;8.436;2023-07-16T01:02:23;99646.00;;;19.68;94.92
40730;BME280;26418;50.070;8.436;2023-07-16T01:04:49;99636.97;;;19.68;94.61
40730;BME280;26418;50.070;8.436;2023-07-16T01:07:15;99630.69;;;19.67;92.84
40730;BME280;26418;50.070;8.436;2023-07-16T01:09:44;99635.72;;;19.61;92.50
40730;BME280;26418;50.070;8.436;2023-07-16T01:12:11;99634.50;;;19.59;92.12
40730;BME280;26418;50.070;8.436;2023-07-16T01:14:39;99656.00;;;19.57;91.14
40730;BME280;26418;50.070;8.436;2023-07-16T01:17:06;99675.53;;;19.52;91.37
40730;BME280;26418;50.070;8.436;2023-07-16T01:19:33;99677.84;;;19.50;92.31
40730;BME280;26418;50.070;8.436;2023-07-16T01:22:23;99676.63;;;19.47;92.23
40730;BME280;26418;50.070;8.436;2023-07-16T01:30:04;99685.91;;;19.39;93.21
40730;BME280;26418;50.070;8.436;2023-07-16T01:32:35;99691.72;;;19.37;93.52
40730;BME280;26418;50.070;8.436;2023-07-16T01:35:02;99701.53;;;19.38;93.53
40730;BME280;26418;50.070;8.436;2023-07-16T01:37:28;99699.97;;;19.37;92.52
40730;BME280;26418;50.070;8.436;2023-07-16T01:39:54;99700.34;;;19.36;92.56
40730;BME280;26418;50.070;8.436;2023-07-16T01:42:19;99710.50;;;19.35;92.83
40730;BME280;26418;50.070;8.436;2023-07-16T01:44:45;99710.88;;;19.33;92.75
40730;BME280;26418;50.070;8.436;2023-07-16T01:47:46;99704.81;;;19.24;92.29
40730;BME280;26418;50.070;8.436;2023-07-16T01:50:09;99713.00;;;19.21;92.55
40730;BME280;26418;50.070;8.436;2023-07-16T01:52:35;99721.97;;;19.17;92.64
40730;BME280;26418;50.070;8.436;2023-07-16T01:55:00;99719.44;;;19.09;92.69
40730;BME280;26418;50.070;8.436;2023-07-16T01:57:26;99718.16;;;19.03;92.52
40730;BME280;26418;50.070;8.436;2023-07-16T01:59:52;99725.16;;;19.00;92.97
40730;BME280;26418;50.070;8.436;2023-07-16T02:02:17;99723.50;;;18.95;92.54
40730;BME280;26418;50.070;8.436;2023-07-16T02:04:43;99719.53;;;18.93;92.95
40730;BME280;26418;50.070;8.436;2023-07-16T02:07:08;99725.25;;;18.88;93.26
40730;BME280;26418;50.070;8.436;2023-07-16T02:09:34;99721.25;;;18.81;93.30
40730;BME280;26418;50.070;8.436;2023-07-16T02:12:00;99731.38;;;18.81;93.54
40730;BME280;26418;50.070;8.436;2023-07-16T02:14:26;99736.38;;;18.75;93.70
40730;BME280;26418;50.070;8.436;2023-07-16T02:16:51;99732.78;;;18.71;94.21
40730;BME280;26418;50.070;8.436;2023-07-16T02:19:17;99718.56;;;18.65;94.26
40730;BME280;26418;50.070;8.436;2023-07-16T02:21:42;99733.84;;;18.66;94.69
40730;BME280;26418;50.070;8.436;2023-07-16T02:24:08;99729.00;;;18.60;94.75
40730;BME280;26418;50.070;8.436;2023-07-16T02:26:34;99725.84;;;18.58;94.94
40730;BME280;26418;50.070;8.436;2023-07-16T02:28:59;99728.59;;;18.58;95.37
40730;BME280;26418;50.070;8.436;2023-07-16T02:31:25;99737.50;;;18.54;95.38
40730;BME280;26418;50.070;8.436;2023-07-16T02:33:50;99728.00;;;18.48;95.68
40730;BME280;26418;50.070;8.436;2023-07-16T02:36:16;99751.84;;;18.48;95.52
40730;BME280;26418;50.070;8.436;2023-07-16T02:38:42;99750.97;;;18.44;95.76
40730;BME280;26418;50.070;8.436;2023-07-16T02:41:07;99757.59;;;18.43;95.92
40730;BME280;26418;50.070;8.436;2023-07-16T02:43:33;99754.09;;;18.42;95.73
40730;BME280;26418;50.070;8.436;2023-07-16T02:45:58;99755.50;;;18.36;95.09
40730;BME280;26418;50.070;8.436;2023-07-16T02:48:24;99760.56;;;18.34;95.40
40730;BME280;26418;50.070;8.436;2023-07-16T02:50:49;99764.38;;;18.29;95.69
40730;BME280;26418;50.070;8.436;2023-07-16T02:53:15;99774.50;;;18.29;95.59
40730;BME280;26418;50.070;8.436;2023-07-16T02:55:40;99776.09;;;18.30;94.34
40730;BME280;26418;50.070;8.436;2023-07-16T02:58:06;99779.19;;;18.28;93.77
40730;BME280;26418;50.070;8.436;2023-07-16T03:00:32;99772.84;;;18.24;93.95
40730;BME280;26418;50.070;8.436;2023-07-16T03:02:58;99775.13;;;18.22;94.71
40730;BME280;26418;50.070;8.436;2023-07-16T03:05:24;99782.91;;;18.20;94.08
40730;BME280;26418;50.070;8.436;2023-07-16T03:07:50;99775.41;;;18.17;94.31
40730;BME280;26418;50.070;8.436;2023-07-16T03:10:16;99777.38;;;18.16;94.63
40730;BME280;26418;50.070;8.436;2023-07-16T03:12:41;99779.66;;;18.14;94.61
40730;BME280;26418;50.070;8.436;2023-07-16T03:15:07;99778.44;;;18.12;93.91
40730;BME280;26418;50.070;8.436;2023-07-16T03:17:33;99788.13;;;18.09;93.86
40730;BME280;26418;50.070;8.436;2023-07-16T03:19:59;99779.13;;;18.09;94.27
40730;BME280;26418;50.070;8.436;2023-07-16T03:22:24;99798.19;;;18.05;94.42
40730;BME280;26418;50.070;8.436;2023-07-16T03:24:50;99791.41;;;17.99;93.99
40730;BME280;26418;50.070;8.436;2023-07-16T03:27:16;99790.59;;;17.98;93.92
40730;BME280;26418;50.070;8.436;2023-07-16T03:29:42;99795.19;;;17.94;93.79
40730;BME280;26418;50.070;8.436;2023-07-16T03:32:07;99799.41;;;17.91;93.65
40730;BME280;26418;50.070;8.436;2023-07-16T03:34:33;99796.47;;;17.84;93.65
40730;BME280;26418;50.070;8.436;2023-07-16T03:36:58;99804.25;;;17.82;93.80
40730;BME280;26418;50.070;8.436;2023-07-16T03:39:24;99800.28;;;17.80;93.24
40730;BME280;26418;50.070;8.436;2023-07-16T03:41:50;99809.28;;;17.80;93.27
40730;BME280;26418;50.070;8.436;2023-07-16T03:44:15;99804.34;;;17.70;93.71
40730;BME280;26418;50.070;8.436;2023-07-16T03:46:41;99809.81;;;17.70;94.28
40730;BME280;26418;50.070;8.436;2023-07-16T03:49:07;99804.34;;;17.70;93.55
40730;BME280;26418;50.070;8.436;2023-07-16T03:51:33;99812.19;;;17.71;94.32
40730;BME280;26418;50.070;8.436;2023-07-16T03:53:59;99815.19;;;17.66;94.52
40730;BME280;26418;50.070;8.436;2023-07-16T03:56:24;99810.31;;;17.59;94.68
40730;BME280;26418;50.070;8.436;2023-07-16T03:58:50;99821.78;;;17.65;95.09
40730;BME280;26418;50.070;8.436;2023-07-16T04:01:16;99832.72;;;17.65;94.30
40730;BME280;26418;50.070;8.436;2023-07-16T04:03:41;99831.50;;;17.63;94.33
40730;BME280;26418;50.070;8.436;2023-07-16T04:06:08;99833.09;;;17.64;94.59
40730;BME280;26418;50.070;8.436;2023-07-16T04:08:37;99828.41;;;17.64;94.92
40730;BME280;26418;50.070;8.436;2023-07-16T04:11:05;99830.81;;;17.66;94.16
40730;BME280;26418;50.070;8.436;2023-07-16T04:13:31;99825.34;;;17.66;94.32
40730;BME280;26418;50.070;8.436;2023-07-16T04:15:57;99837.97;;;17.70;94.28
40730;BME280;26418;50.070;8.436;2023-07-16T04:18:26;99837.16;;;17.70;94.25
40730;BME280;26418;50.070;8.436;2023-07-16T04:20:52;99836.56;;;17.76;94.13
40730;BME280;26418;50.070;8.436;2023-07-16T04:23:18;99844.84;;;17.80;94.19
40730;BME280;26418;50.070;8.436;2023-07-16T04:25:44;99848.81;;;17.83;93.90
40730;BME280;26418;50.070;8.436;2023-07-16T04:28:10;99856.66;;;17.84;93.81
40730;BME280;26418;50.070;8.436;2023-07-16T04:30:36;99867.00;;;17.91;93.26
40730;BME280;26418;50.070;8.436;2023-07-16T04:33:05;99865.19;;;17.95;93.01
40730;BME280;26418;50.070;8.436;2023-07-16T04:35:32;99867.22;;;17.98;92.55
40730;BME280;26418;50.070;8.436;2023-07-16T04:37:58;99872.88;;;18.05;92.25
40730;BME280;26418;50.070;8.436;2023-07-16T04:40:24;99874.22;;;18.12;91.96
40730;BME280;26418;50.070;8.436;2023-07-16T04:42:50;99877.13;;;18.19;91.52
40730;BME280;26418;50.070;8.436;2023-07-16T04:45:16;99886.22;;;18.23;91.41
40730;BME280;26418;50.070;8.436;2023-07-16T04:47:42;99882.78;;;18.26;91.01
40730;BME280;26418;50.070;8.436;2023-07-16T04:50:08;99888.44;;;18.33;90.93
40730;BME280;26418;50.070;8.436;2023-07-16T04:52:33;99891.25;;;18.37;90.51
40730;BME280;26418;50.070;8.436;2023-07-16T04:54:59;99895.22;;;18.39;89.83
40730;BME280;26418;50.070;8.436;2023-07-16T04:57:24;99896.03;;;18.40;89.63
40730;BME280;26418;50.070;8.436;2023-07-16T04:59:50;99890.88;;;18.38;89.85
40730;BME280;26418;50.070;8.436;2023-07-16T05:02:15;99897.19;;;18.39;89.57
40730;BME280;26418;50.070;8.436;2023-07-16T05:04:42;99894.34;;;18.35;89.76
40730;BME280;26418;50.070;8.436;2023-07-16T05:07:09;99909.72;;;18.40;89.95
40730;BME280;26418;50.070;8.436;2023-07-16T05:09:35;99905.03;;;18.41;89.42
40730;BME280;26418;50.070;8.436;2023-07-16T05:12:00;99899.09;;;18.38;89.67
40730;BME280;26418;50.070;8.436;2023-07-16T05:14:27;99905.91;;;18.45;89.76
40730;BME280;26418;50.070;8.436;2023-07-16T05:16:53;99914.56;;;18.47;89.12
40730;BME280;26418;50.070;8.436;2023-07-16T05:19:18;99909.53;;;18.49;88.33
40730;BME280;26418;50.070;8.436;2023-07-16T05:21:44;99916.34;;;18.55;87.66
40730;BME280;26418;50.070;8.436;2023-07-16T05:24:09;99919.94;;;18.59;87.46
40730;BME280;26418;50.070;8.436;2023-07-16T05:26:35;99929.41;;;18.62;87.34
40730;BME280;26418;50.070;8.436;2023-07-16T05:29:01;99915.53;;;18.54;86.39
40730;BME280;26418;50.070;8.436;2023-07-16T05:31:26;99918.72;;;18.57;86.57
40730;BME280;26418;50.070;8.436;2023-07-16T05:33:52;99924.81;;;18.66;86.48
40730;BME280;26418;50.070;8.436;2023-07-16T05:36:17;99931.53;;;18.68;85.50
40730;BME280;26418;50.070;8.436;2023-07-16T05:38:43;99934.63;;;18.67;85.65
40730;BME280;26418;50.070;8.436;2023-07-16T05:41:08;99949.34;;;18.78;85.90
40730;BME280;26418;50.070;8.436;2023-07-16T05:43:34;99947.94;;;18.84;84.91
40730;BME280;26418;50.070;8.436;2023-07-16T05:45:59;99943.44;;;18.92;84.10
40730;BME280;26418;50.070;8.436;2023-07-16T05:48:25;99947.41;;;18.95;82.21
40730;BME280;26418;50.070;8.436;2023-07-16T05:50:50;99947.16;;;19.00;82.50
40730;BME280;26418;50.070;8.436;2023-07-16T05:53:16;99952.44;;;19.09;81.45
40730;BME280;26418;50.070;8.436;2023-07-16T05:55:42;99945.81;;;19.10;80.50
40730;BME280;26418;50.070;8.436;2023-07-16T05:58:08;99944.88;;;19.22;79.37
40730;BME280;26418;50.070;8.436;2023-07-16T06:00:34;99942.72;;;19.31;78.18
40730;BME280;26418;50.070;8.436;2023-07-16T06:03:01;99953.56;;;19.43;77.69
40730;BME280;26418;50.070;8.436;2023-07-16T06:05:27;99942.38;;;19.52;76.04
40730;BME280;26418;50.070;8.436;2023-07-16T06:07:57;99957.25;;;19.71;75.36
40730;BME280;26418;50.070;8.436;2023-07-16T06:10:23;99956.41;;;19.86;74.74
40730;BME280;26418;50.070;8.436;2023-07-16T06:12:49;99956.91;;;19.92;73.69
40730;BME280;26418;50.070;8.436;2023-07-16T06:15:14;99954.31;;;19.99;71.69
40730;BME280;26418;50.070;8.436;2023-07-16T06:17:40;99945.03;;;20.07;70.21
40730;BME280;26418;50.070;8.436;2023-07-16T06:20:06;99951.81;;;20.14;69.11
40730;BME280;26418;50.070;8.436;2023-07-16T06:22:32;99962.53;;;20.19;68.72
40730;BME280;26418;50.070;8.436;2023-07-16T06:24:58;99957.81;;;20.19;67.56
40730;BME280;26418;50.070;8.436;2023-07-16T06:27:24;99963.28;;;20.19;68.79
40730;BME280;26418;50.070;8.436;2023-07-16T06:29:50;99966.16;;;20.26;69.71
40730;BME280;26418;50.070;8.436;2023-07-16T06:32:16;99961.16;;;20.32;68.41
40730;BME280;26418;50.070;8.436;2023-07-16T06:34:42;99971.34;;;20.32;66.90
40730;BME280;26418;50.070;8.436;2023-07-16T06:37:07;99972.34;;;20.43;67.34
40730;BME280;26418;50.070;8.436;2023-07-16T06:39:33;99972.03;;;20.48;65.95
40730;BME280;26418;50.070;8.436;2023-07-16T06:41:58;99968.81;;;20.42;65.63
40730;BME280;26418;50.070;8.436;2023-07-16T06:44:24;99978.56;;;20.40;66.52
40730;BME280;26418;50.070;8.436;2023-07-16T06:46:49;99968.44;;;20.44;65.92
40730;BME280;26418;50.070;8.436;2023-07-16T06:49:15;99973.66;;;20.53;65.61
40730;BME280;26418;50.070;8.436;2023-07-16T06:51:41;99974.09;;;20.55;64.58
40730;BME280;26418;50.070;8.436;2023-07-16T06:54:07;99979.59;;;20.55;64.11
40730;BME280;26418;50.070;8.436;2023-07-16T06:56:33;99982.47;;;20.62;64.12
40730;BME280;26418;50.070;8.436;2023-07-16T06:58:58;99974.28;;;20.66;64.27
40730;BME280;26418;50.070;8.436;2023-07-16T07:01:24;99979.25;;;20.80;63.52
40730;BME280;26418;50.070;8.436;2023-07-16T07:03:50;99979.50;;;20.94;63.02
40730;BME280;26418;50.070;8.436;2023-07-16T07:06:15;99983.94;;;21.02;63.26
40730;BME280;26418;50.070;8.436;2023-07-16T07:08:41;99982.38;;;21.05;62.75
40730;BME280;26418;50.070;8.436;2023-07-16T07:11:06;99985.34;;;21.19;64.01
40730;BME280;26418;50.070;8.436;2023-07-16T07:13:32;99981.34;;;21.44;62.18
40730;BME280;26418;50.070;8.436;2023-07-16T07:15:57;99988.69;;;21.63;61.14
40730;BME280;26418;50.070;8.436;2023-07-16T07:18:23;99990.06;;;21.80;60.20
40730;BME280;26418;50.070;8.436;2023-07-16T07:20:49;99981.50;;;21.85;60.08
40730;BME280;26418;50.070;8.436;2023-07-16T07:23:15;99988.75;;;22.01;59.56
40730;BME280;26418;50.070;8.436;2023-07-16T07:25:41;99982.22;;;22.16;58.78
40730;BME280;26418;50.070;8.436;2023-07-16T07:28:07;99992.22;;;22.35;57.15
40730;BME280;26418;50.070;8.436;2023-07-16T07:30:32;99992.25;;;22.39;56.54
40730;BME280;26418;50.070;8.436;2023-07-16T07:32:58;99998.88;;;22.30;56.04
40730;BME280;26418;50.070;8.436;2023-07-16T07:35:23;99991.22;;;22.13;56.29
40730;BME280;26418;50.070;8.436;2023-07-16T07:37:49;99989.25;;;22.10;56.40
40730;BME280;26418;50.070;8.436;2023-07-16T07:40:15;99984.53;;;22.14;56.07
40730;BME280;26418;50.070;8.436;2023-07-16T07:42:41;99987.00;;;22.23;56.10
40730;BME280;26418;50.070;8.436;2023-07-16T07:45:07;99985.75;;;22.17;54.28
40730;BME280;26418;50.070;8.436;2023-07-16T07:47:32;99980.97;;;22.10;54.94
40730;BME280;26418;50.070;8.436;2023-07-16T07:49:58;99997.09;;;22.08;54.57
40730;BME280;26418;50.070;8.436;2023-07-16T07:52:23;99991.66;;;22.15;55.68
40730;BME280;26418;50.070;8.436;2023-07-16T07:54:49;100000.38;;;22.21;54.28
40730;BME280;26418;50.070;8.436;2023-07-16T07:57:15;100001.38;;;22.05;52.43
40730;BME280;26418;50.070;8.436;2023-07-16T07:59:40;99992.91;;;21.87;52.58
40730;BME280;26418;50.070;8.436;2023-07-16T08:02:06;99999.00;;;21.70;52.70
40730;BME280;26418;50.070;8.436;2023-07-16T08:04:31;100001.31;;;21.64;53.61
40730;BME280;26418;50.070;8.436;2023-07-16T08:06:57;99998.91;;;21.62;53.77
40730;BME280;26418;50.070;8.436;2023-07-16T08:09:23;100003.25;;;21.63;55.15
40730;BME280;26418;50.070;8.436;2023-07-16T08:11:48;100006.47;;;21.69;54.78
40730;BME280;26418;50.070;8.436;2023-07-16T08:14:14;100006.19;;;21.78;52.84
40730;BME280;26418;50.070;8.436;2023-07-16T08:16:40;99998.06;;;21.89;51.05
40730;BME280;26418;50.070;8.436;2023-07-16T08:19:05;99993.78;;;21.95;49.92
40730;BME280;26418;50.070;8.436;2023-07-16T08:21:32;99998.31;;;22.14;49.07
40730;BME280;26418;50.070;8.436;2023-07-16T08:23:58;99993.78;;;22.33;49.53
40730;BME280;26418;50.070;8.436;2023-07-16T08:26:23;99985.44;;;22.63;48.63
40730;BME280;26418;50.070;8.436;2023-07-16T08:28:49;99987.19;;;22.89;48.69
40730;BME280;26418;50.070;8.436;2023-07-16T08:31:14;99994.41;;;23.08;48.44
40730;BME280;26418;50.070;8.436;2023-07-16T08:33:40;99994.91;;;23.18;47.41
40730;BME280;26418;50.070;8.436;2023-07-16T08:36:06;99999.72;;;23.32;47.88
40730;BME280;26418;50.070;8.436;2023-07-16T08:38:31;99994.47;;;23.12;47.05
40730;BME280;26418;50.070;8.436;2023-07-16T08:40:57;100002.34;;;23.14;48.14
40730;BME280;26418;50.070;8.436;2023-07-16T08:43:23;100002.44;;;23.24;46.89
40730;BME280;26418;50.070;8.436;2023-07-16T08:45:49;100003.28;;;23.32;46.33
40730;BME280;26418;50.070;8.436;2023-07-16T08:48:16;100000.94;;;23.38;45.42
40730;BME280;26418;50.070;8.436;2023-07-16T08:50:46;100004.91;;;23.41;45.36
40730;BME280;26418;50.070;8.436;2023-07-16T08:53:16;100005.22;;;23.28;45.87
40730;BME280;26418;50.070;8.436;2023-07-16T08:55:45;100004.47;;;23.31;46.58
40730;BME280;26418;50.070;8.436;2023-07-16T08:58:14;100014.81;;;23.49;46.62
40730;BME280;26418;50.070;8.436;2023-07-16T09:00:43;99998.72;;;23.69;46.50
40730;BME280;26418;50.070;8.436;2023-07-16T09:03:14;100009.41;;;23.78;47.00
40730;BME280;26418;50.070;8.436;2023-07-16T09:05:42;100014.13;;;23.70;45.88
40730;BME280;26418;50.070;8.436;2023-07-16T09:08:08;100011.88;;;24.01;46.57
40730;BME280;26418;50.070;8.436;2023-07-16T09:10:34;99998.09;;;24.05;45.24
40730;BME280;26418;50.070;8.436;2023-07-16T09:12:59;100015.91;;;24.36;45.06
40730;BME280;26418;50.070;8.436;2023-07-16T09:15:26;100008.81;;;24.46;44.39
40730;BME280;26418;50.070;8.436;2023-07-16T09:17:54;100013.16;;;24.51;43.71
40730;BME280;26418;50.070;8.436;2023-07-16T09:20:20;100002.50;;;24.56;44.70
40730;BME280;26418;50.070;8.436;2023-07-16T09:22:47;100013.16;;;24.65;44.16
40730;BME280;26418;50.070;8.436;2023-07-16T09:25:13;100003.72;;;24.95;43.86
40730;BME280;26418;50.070;8.436;2023-07-16T09:27:38;100006.44;;;25.20;42.62
40730;BME280;26418;50.070;8.436;2023-07-16T09:30:05;100006.03;;;25.33;42.36
40730;BME280;26418;50.070;8.436;2023-07-16T09:32:36;100006.84;;;25.15;40.90
40730;BME280;26418;50.070;8.436;2023-07-16T09:35:09;100009.25;;;24.95;41.14
40730;BME280;26418;50.070;8.436;2023-07-16T09:37:37;100008.47;;;25.05;41.09
40730;BME280;26418;50.070;8.436;2023-07-16T09:40:05;100002.06;;;25.34;41.53
40730;BME280;26418;50.070;8.436;2023-07-16T09:42:37;100003.53;;;25.74;40.33
40730;BME280;26418;50.070;8.436;2023-07-16T09:45:03;100014.91;;;25.95;39.69
40730;BME280;26418;50.070;8.436;2023-07-16T09:47:30;100022.28;;;26.30;39.23
40730;BME280;26418;50.070;8.436;2023-07-16T09:49:56;100018.63;;;26.44;38.18
40730;BME280;26418;50.070;8.436;2023-07-16T09:52:22;100020.06;;;26.63;38.22
40730;BME280;26418;50.070;8.436;2023-07-16T09:54:52;100020.88;;;26.60;38.07
40730;BME280;26418;50.070;8.436;2023-07-16T09:57:20;100014.00;;;26.76;37.50
40730;BME280;26418;50.070;8.436;2023-07-16T09:59:47;100011.72;;;26.63;36.00
40730;BME280;26418;50.070;8.436;2023-07-16T10:02:13;100006.94;;;26.67;36.43
40730;BME280;26418;50.070;8.436;2023-07-16T10:04:39;100019.47;;;26.90;36.29
40730;BME280;26418;50.070;8.436;2023-07-16T10:07:05;100017.56;;;27.22;35.70
40730;BME280;26418;50.070;8.436;2023-07-16T10:09:52;100025.34;;;27.38;34.92
40730;BME280;26418;50.070;8.436;2023-07-16T10:12:20;100022.31;;;27.25;35.22
40730;BME280;26418;50.070;8.436;2023-07-16T10:14:51;100017.13;;;27.27;34.83
40730;BME280;26418;50.070;8.436;2023-07-16T10:17:18;100012.50;;;27.51;34.99
40730;BME280;26418;50.070;8.436;2023-07-16T10:22:36;100018.78;;;28.21;33.40
40730;BME280;26418;50.070;8.436;2023-07-16T10:25:05;99998.94;;;28.46;32.88
40730;BME280;26418;50.070;8.436;2023-07-16T10:27:33;100016.09;;;28.92;31.71
40730;BME280;26418;50.070;8.436;2023-07-16T10:30:00;100001.28;;;28.99;31.05
40730;BME280;26418;50.070;8.436;2023-07-16T10:32:29;100003.28;;;29.18;31.43
40730;BME280;26418;50.070;8.436;2023-07-16T10:34:55;100015.44;;;29.08;30.81
40730;BME280;26418;50.070;8.436;2023-07-16T10:37:22;100019.00;;;28.85;30.85
40730;BME280;26418;50.070;8.436;2023-07-16T10:39:49;100005.66;;;28.49;31.70
40730;BME280;26418;50.070;8.436;2023-07-16T10:42:16;99999.91;;;28.36;32.47
40730;BME280;26418;50.070;8.436;2023-07-16T10:44:42;100002.75;;;28.01;32.92
40730;BME280;26418;50.070;8.436;2023-07-16T10:47:09;100012.25;;;28.04;32.48
40730;BME280;26418;50.070;8.436;2023-07-16T10:49:34;100010.41;;;28.24;31.64
40730;BME280;26418;50.070;8.436;2023-07-16T10:52:01;100010.06;;;28.46;30.59
40730;BME280;26418;50.070;8.436;2023-07-16T10:54:27;99999.31;;;28.48;30.52
40730;BME280;26418;50.070;8.436;2023-07-16T10:56:52;100010.31;;;28.32;30.70
40730;BME280;26418;50.070;8.436;2023-07-16T10:59:18;100011.41;;;28.11;31.86
40730;BME280;26418;50.070;8.436;2023-07-16T11:01:44;100009.41;;;27.80;31.99
40730;BME280;26418;50.070;8.436;2023-07-16T11:04:10;100004.22;;;27.48;33.04
40730;BME280;26418;50.070;8.436;2023-07-16T11:06:35;100011.03;;;27.39;33.42
40730;BME280;26418;50.070;8.436;2023-07-16T11:09:08;100002.66;;;27.46;33.43
40730;BME280;26418;50.070;8.436;2023-07-16T11:11:33;100001.00;;;27.53;33.84
40730;BME280;26418;50.070;8.436;2023-07-16T11:13:59;100010.06;;;27.88;32.38
40730;BME280;26418;50.070;8.436;2023-07-16T11:16:25;100007.56;;;28.28;31.78
40730;BME280;26418;50.070;8.436;2023-07-16T11:18:51;100008.50;;;28.69;31.34
40730;BME280;26418;50.070;8.436;2023-07-16T11:21:18;100013.97;;;28.76;30.21
40730;BME280;26418;50.070;8.436;2023-07-16T11:23:45;100006.16;;;28.67;29.85
40730;BME280;26418;50.070;8.436;2023-07-16T11:26:11;100000.84;;;28.53;30.83
40730;BME280;26418;50.070;8.436;2023-07-16T11:28:40;99993.56;;;28.35;31.11
40730;BME280;26418;50.070;8.436;2023-07-16T11:31:16;99999.91;;;28.36;30.38
40730;BME280;26418;50.070;8.436;2023-07-16T11:33:46;99995.78;;;28.68;30.09
40730;BME280;26418;50.070;8.436;2023-07-16T11:36:12;99990.19;;;28.71;30.17
40730;BME280;26418;50.070;8.436;2023-07-16T11:38:38;99993.78;;;28.72;30.00
40730;BME280;26418;50.070;8.436;2023-07-16T11:41:04;100002.50;;;28.98;29.34
40730;BME280;26418;50.070;8.436;2023-07-16T11:43:36;99997.66;;;29.22;29.10
40730;BME280;26418;50.070;8.436;2023-07-16T11:46:05;99998.88;;;29.21;29.53
40730;BME280;26418;50.070;8.436;2023-07-16T11:48:30;99984.34;;;29.33;28.65
40730;BME280;26418;50.070;8.436;2023-07-16T11:50:56;99993.19;;;29.69;29.11
40730;BME280;26418;50.070;8.436;2023-07-16T11:53:22;99976.13;;;29.83;27.78
40730;BME280;26418;50.070;8.436;2023-07-16T11:55:47;99992.31;;;29.72;28.68
40730;BME280;26418;50.070;8.436;2023-07-16T11:58:13;99984.28;;;29.94;28.18
40730;BME280;26418;50.070;8.436;2023-07-16T12:00:39;99987.47;;;30.29;27.78
40730;BME280;26418;50.070;8.436;2023-07-16T12:03:04;99997.41;;;30.30;26.51
40730;BME280;26418;50.070;8.436;2023-07-16T12:05:30;99992.28;;;30.29;26.79
40730;BME280;26418;50.070;8.436;2023-07-16T12:07:55;99993.06;;;30.46;27.27
40730;BME280;26418;50.070;8.436;2023-07-16T12:10:21;99994.44;;;30.87;26.82
40730;BME280;26418;50.070;8.436;2023-07-16T12:12:46;99982.03;;;31.04;26.33
40730;BME280;26418;50.070;8.436;2023-07-16T12:15:12;99982.69;;;31.25;25.47
40730;BME280;26418;50.070;8.436;2023-07-16T12:17:38;99979.53;;;31.65;26.04
40730;BME280;26418;50.070;8.436;2023-07-16T12:20:04;99973.09;;;31.69;25.58
40730;BME280;26418;50.070;8.436;2023-07-16T12:22:30;99977.91;;;31.68;24.86
40730;BME280;26418;50.070;8.436;2023-07-16T12:24:55;99971.97;;;32.05;25.32
40730;BME280;26418;50.070;8.436;2023-07-16T12:27:21;99972.09;;;32.14;25.29
40730;BME280;26418;50.070;8.436;2023-07-16T12:29:47;99967.97;;;32.06;25.22
40730;BME280;26418;50.070;8.436;2023-07-16T12:32:13;99971.75;;;31.86;24.39
40730;BME280;26418;50.070;8.436;2023-07-16T12:34:39;99963.81;;;31.97;24.73
40730;BME280;26418;50.070;8.436;2023-07-16T12:37:05;99974.78;;;31.92;24.59
40730;BME280;26418;50.070;8.436;2023-07-16T12:39:32;99959.03;;;31.85;25.45
40730;BME280;26418;50.070;8.436;2023-07-16T12:41:57;99967.22;;;31.50;25.49
40730;BME280;26418;50.070;8.436;2023-07-16T12:44:23;99971.38;;;31.58;25.65
40730;BME280;26418;50.070;8.436;2023-07-16T12:46:48;99974.88;;;31.75;24.89
40730;BME280;26418;50.070;8.436;2023-07-16T12:49:15;99976.66;;;31.69;25.30
40730;BME280;26418;50.070;8.436;2023-07-16T12:51:40;99966.38;;;31.36;25.26
40730;BME280;26418;50.070;8.436;2023-07-16T12:54:06;99975.91;;;30.80;25.93
40730;BME280;26418;50.070;8.436;2023-07-16T12:56:31;99969.19;;;30.61;26.72
40730;BME280;26418;50.070;8.436;2023-07-16T12:58:58;99980.13;;;30.55;26.31
40730;BME280;26418;50.070;8.436;2023-07-16T13:01:23;99978.34;;;30.62;26.24